Time;durP1;ratioP1;P1;durP2;ratioP2;P2;SDS_P1;SDS_P2;PMS_P1;PMS_P2;Temp;Humidity;BMP_temperature;BMP_pressure;BME280_temperature;BME280_humidity;BME280_pressure;Samples;Min_cycle;Max_cycle;Signal;HPM_P1;HPM_P2
2023/05/21 00:01:42;;;;;;;20.45;9.50;;;16.10;99.90;;;;;;5092865;28;20046;-81
2023/05/21 00:04:08;;;;;;;15.30;9.60;;;16.10;99.90;;;;;;5092461;28;20028;-81
2023/05/21 00:06:37;;;;;;;15.50;9.50;;;16.20;99.90;;;;;;5092469;28;20028;-81
2023/05/21 00:09:04;;;;;;;11.38;8.55;;;16.10;99.90;;;;;;5092779;28;20102;-82
2023/05/21 00:11:31;;;;;;;13.68;8.90;;;16.20;99.90;;;;;;5093694;28;20016;-81
2023/05/21 00:13:57;;;;;;;15.18;9.77;;;16.10;99.90;;;;;;5092741;28;20116;-82
2023/05/21 00:16:23;;;;;;;14.95;9.80;;;16.10;99.90;;;;;;5092549;28;20462;-80
2023/05/21 00:18:50;;;;;;;19.02;9.57;;;16.10;99.90;;;;;;5092029;28;20036;-81
2023/05/21 00:21:16;;;;;;;14.90;8.90;;;16.10;99.90;;;;;;5092561;28;20032;-82
2023/05/21 00:23:44;;;;;;;15.63;9.18;;;16.10;99.90;;;;;;5092248;28;20032;-81
2023/05/21 00:26:10;;;;;;;15.70;8.68;;;16.10;99.90;;;;;;5092261;28;20446;-82
2023/05/21 00:28:36;;;;;;;17.70;8.57;;;16.10;99.90;;;;;;5092579;28;20020;-82
2023/05/21 00:31:02;;;;;;;14.43;8.93;;;16.00;99.90;;;;;;5092723;28;20020;-82
2023/05/21 00:33:28;;;;;;;12.93;8.70;;;16.00;99.90;;;;;;5093316;28;20374;-82
2023/05/21 00:35:55;;;;;;;12.93;8.90;;;16.00;99.90;;;;;;5092447;28;20076;-83
2023/05/21 00:38:22;;;;;;;13.73;9.10;;;15.90;99.90;;;;;;5092362;28;20039;-81
2023/05/21 00:40:48;;;;;;;18.92;8.57;;;15.90;99.90;;;;;;5093435;28;20040;-82
2023/05/21 00:43:14;;;;;;;13.25;8.77;;;15.90;99.90;;;;;;5093567;28;20023;-81
2023/05/21 00:45:45;;;;;;;14.55;8.63;;;15.90;99.90;;;;;;5092344;28;20024;-82
2023/05/21 00:48:12;;;;;;;18.65;8.90;;;15.90;99.90;;;;;;5092247;28;20024;-82
2023/05/21 00:50:39;;;;;;;12.25;8.57;;;15.90;99.90;;;;;;5093563;28;20028;-83
2023/05/21 00:53:08;;;;;;;15.63;10.10;;;15.90;99.90;;;;;;5092228;28;20106;-83
2023/05/21 00:55:38;;;;;;;19.80;11.32;;;15.80;99.90;;;;;;5091955;28;20058;-81
2023/05/21 00:58:05;;;;;;;15.30;10.32;;;15.80;99.90;;;;;;5092271;28;20020;-81
2023/05/21 01:00:35;;;;;;;15.73;9.32;;;15.80;99.90;;;;;;5091636;28;20462;-81
2023/05/21 01:03:01;;;;;;;16.17;9.73;;;15.70;99.90;;;;;;5092384;28;20048;-81
2023/05/21 01:05:30;;;;;;;20.38;9.27;;;15.60;99.90;;;;;;5091488;28;20430;-81
2023/05/21 01:07:57;;;;;;;12.75;9.77;;;15.60;99.90;;;;;;5091261;28;20024;-81
2023/05/21 01:10:25;;;;;;;17.92;10.57;;;15.60;99.90;;;;;;5091626;28;20416;-82
2023/05/21 01:12:51;;;;;;;16.58;10.05;;;15.60;99.90;;;;;;5093045;28;20024;-81
2023/05/21 01:15:17;;;;;;;14.18;9.57;;;15.60;99.90;;;;;;5091682;28;20056;-81
2023/05/21 01:17:47;;;;;;;13.25;9.93;;;15.60;99.90;;;;;;5092131;28;20032;-81
2023/05/21 01:20:18;;;;;;;13.50;9.43;;;15.60;99.90;;;;;;5092803;28;20066;-80
2023/05/21 01:22:54;;;;;;;14.77;9.95;;;15.60;99.90;;;;;;5092929;28;20399;-81
2023/05/21 01:25:22;;;;;;;18.38;10.00;;;15.50;99.90;;;;;;5092026;28;20056;-81
2023/05/21 01:27:48;;;;;;;20.40;10.23;;;15.50;99.90;;;;;;5095317;28;20016;-82
2023/05/21 01:30:16;;;;;;;21.52;9.63;;;15.50;99.90;;;;;;5095785;28;20073;-80
2023/05/21 01:33:04;;;;;;;11.98;9.68;;;15.50;99.90;;;;;;5095594;28;20052;-82
2023/05/21 01:35:34;;;;;;;14.68;9.43;;;15.50;99.90;;;;;;5095156;28;20611;-81
2023/05/21 01:38:21;;;;;;;17.75;9.88;;;15.50;99.90;;;;;;5097112;28;20082;-82
2023/05/21 01:40:57;;;;;;;13.70;9.30;;;15.40;99.90;;;;;;5095488;28;20097;-81
2023/05/21 01:43:26;;;;;;;16.92;9.20;;;15.40;99.90;;;;;;5095114;28;20082;-81
2023/05/21 01:45:55;;;;;;;15.27;9.30;;;15.40;99.90;;;;;;5095673;28;20022;-81
2023/05/21 01:48:25;;;;;;;16.20;9.07;;;15.40;99.90;;;;;;5096263;28;20027;-81
2023/05/21 01:50:54;;;;;;;15.45;9.30;;;15.40;99.90;;;;;;5095701;28;20028;-81
2023/05/21 01:53:20;;;;;;;20.95;11.00;;;15.40;99.90;;;;;;5094358;28;20032;-81
2023/05/21 01:55:46;;;;;;;21.88;11.88;;;15.40;99.90;;;;;;5095575;28;20024;-80
2023/05/21 01:58:11;;;;;;;23.50;12.77;;;15.40;99.90;;;;;;5094473;28;20477;-81
2023/05/21 02:00:38;;;;;;;20.38;11.30;;;15.50;99.90;;;;;;5095664;28;20121;-81
2023/05/21 02:03:04;;;;;;;18.33;11.48;;;15.50;99.90;;;;;;5094309;28;20414;-81
2023/05/21 02:05:30;;;;;;;19.42;11.45;;;15.50;99.90;;;;;;5093904;28;20020;-81
2023/05/21 02:07:58;;;;;;;15.27;10.43;;;15.40;99.90;;;;;;5094411;28;20370;-80
2023/05/21 02:10:24;;;;;;;17.08;11.05;;;15.40;99.90;;;;;;5094005;28;20024;-80
2023/05/21 02:12:50;;;;;;;16.17;10.65;;;15.40;99.90;;;;;;5095680;28;20031;-81
2023/05/21 02:15:19;;;;;;;16.13;10.20;;;15.30;99.90;;;;;;5095426;28;20024;-80
2023/05/21 02:17:45;;;;;;;15.10;9.43;;;15.30;99.90;;;;;;5094391;28;20020;-82
2023/05/21 02:20:12;;;;;;;14.57;8.82;;;15.30;99.90;;;;;;5094172;28;20058;-81
2023/05/21 02:22:43;;;;;;;14.00;9.85;;;15.30;99.90;;;;;;5095991;28;20047;-80
2023/05/21 02:25:10;;;;;;;15.95;10.18;;;15.30;99.90;;;;;;5094209;28;20103;-81
2023/05/21 02:27:37;;;;;;;17.83;11.55;;;15.30;99.90;;;;;;5095864;28;20103;-81
2023/05/21 02:30:05;;;;;;;15.73;10.43;;;15.20;99.90;;;;;;5094245;28;20069;-81
2023/05/21 02:32:32;;;;;;;18.67;10.98;;;15.10;99.90;;;;;;5093927;28;20073;-82
2023/05/21 02:34:58;;;;;;;14.93;9.63;;;14.90;99.90;;;;;;5094618;28;20081;-81
2023/05/21 02:37:28;;;;;;;20.05;11.02;;;14.80;99.90;;;;;;5093891;28;20020;-80
2023/05/21 02:39:55;;;;;;;18.10;11.68;;;14.70;99.90;;;;;;5094422;28;20106;-81
2023/05/21 02:42:22;;;;;;;18.77;11.55;;;14.60;99.90;;;;;;5093880;28;20442;-82
2023/05/21 02:44:49;;;;;;;20.23;12.55;;;14.50;99.90;;;;;;5093625;28;20031;-81
2023/05/21 02:47:16;;;;;;;17.27;10.55;;;14.50;99.90;;;;;;5094728;28;20012;-80
2023/05/21 02:49:41;;;;;;;18.05;11.20;;;14.50;99.90;;;;;;5093680;28;20470;-81
2023/05/21 02:52:07;;;;;;;17.80;11.10;;;14.40;99.90;;;;;;5093396;28;20032;-82
2023/05/21 02:54:33;;;;;;;19.75;11.45;;;14.40;99.90;;;;;;5092961;28;20115;-81
2023/05/21 02:57:00;;;;;;;17.80;11.27;;;14.40;99.90;;;;;;5093222;28;20045;-82
2023/05/21 02:59:25;;;;;;;20.83;11.90;;;14.30;99.90;;;;;;5092848;28;20032;-81
2023/05/21 03:01:51;;;;;;;19.75;11.40;;;14.30;99.90;;;;;;5093253;28;20049;-81
2023/05/21 03:04:17;;;;;;;17.20;10.45;;;14.30;99.90;;;;;;5092626;28;20020;-80
2023/05/21 03:06:46;;;;;;;17.45;11.30;;;14.20;99.90;;;;;;5093083;28;20061;-81
2023/05/21 03:09:12;;;;;;;19.83;12.20;;;14.20;99.90;;;;;;5093054;28;20028;-81
2023/05/21 03:11:38;;;;;;;18.15;11.82;;;14.20;99.90;;;;;;5095223;28;20027;-81
2023/05/21 03:14:05;;;;;;;21.33;11.77;;;14.20;99.90;;;;;;5092891;28;20028;-82
2023/05/21 03:16:33;;;;;;;22.17;11.85;;;14.20;99.90;;;;;;5093195;28;20043;-82
2023/05/21 03:19:00;;;;;;;18.05;11.77;;;14.20;99.90;;;;;;5093090;28;20048;-81
2023/05/21 03:21:28;;;;;;;19.80;12.23;;;14.20;99.90;;;;;;5093136;28;20032;-81
2023/05/21 03:23:57;;;;;;;19.40;11.82;;;14.20;99.90;;;;;;5094719;28;20012;-81
2023/05/21 03:26:26;;;;;;;23.38;13.00;;;14.10;99.90;;;;;;5094759;28;20111;-81
2023/05/21 03:28:52;;;;;;;22.17;12.70;;;14.10;99.90;;;;;;5093105;28;20024;-80
2023/05/21 03:31:18;;;;;;;18.52;12.95;;;14.10;99.90;;;;;;5094372;28;20046;-81
2023/05/21 03:33:44;;;;;;;19.67;13.02;;;14.10;99.90;;;;;;5094530;28;20061;-81
2023/05/21 03:36:10;;;;;;;17.83;12.20;;;14.10;99.90;;;;;;5093050;28;20024;-82
2023/05/21 03:38:36;;;;;;;21.73;12.45;;;14.10;99.90;;;;;;5094551;28;20019;-80
2023/05/21 03:41:02;;;;;;;22.60;14.10;;;14.20;99.90;;;;;;5094612;28;20084;-81
2023/05/21 03:43:28;;;;;;;21.52;11.93;;;14.20;99.90;;;;;;5094192;28;20020;-81
2023/05/21 03:45:54;;;;;;;20.65;12.38;;;14.20;99.90;;;;;;5093166;28;20451;-80
2023/05/21 03:48:20;;;;;;;20.00;11.75;;;14.20;99.90;;;;;;5093514;28;20020;-80
2023/05/21 03:50:46;;;;;;;25.63;12.60;;;14.20;99.90;;;;;;5093442;28;20069;-81
2023/05/21 03:53:12;;;;;;;22.10;13.13;;;14.20;99.90;;;;;;5092422;28;20157;-82
2023/05/21 03:55:38;;;;;;;24.60;13.30;;;14.30;99.90;;;;;;5093397;28;20036;-80
2023/05/21 03:58:04;;;;;;;25.38;12.73;;;14.30;99.90;;;;;;5092360;28;20035;-82
2023/05/21 04:00:31;;;;;;;19.70;12.57;;;14.30;99.90;;;;;;5092259;28;20459;-80
2023/05/21 04:02:57;;;;;;;26.35;12.85;;;14.40;99.90;;;;;;5091429;28;20489;-81
2023/05/21 04:05:23;;;;;;;26.10;11.82;;;14.40;99.90;;;;;;5092883;28;20036;-81
2023/05/21 04:07:49;;;;;;;18.20;12.13;;;14.50;99.90;;;;;;5094269;28;20024;-82
2023/05/21 04:10:15;;;;;;;21.27;12.18;;;14.50;99.90;;;;;;5092388;28;20048;-81
2023/05/21 04:12:41;;;;;;;18.33;12.10;;;14.60;99.90;;;;;;5094217;28;20032;-81
2023/05/21 04:15:07;;;;;;;18.85;11.00;;;14.80;99.90;;;;;;5092562;28;20026;-81
2023/05/21 04:17:34;;;;;;;19.42;11.48;;;14.80;99.90;;;;;;5091191;28;20023;-81
2023/05/21 04:20:00;;;;;;;21.13;12.25;;;14.90;99.90;;;;;;5092314;28;20127;-81
2023/05/21 04:22:25;;;;;;;20.65;11.75;;;15.00;99.90;;;;;;5093942;28;20099;-81
2023/05/21 04:24:54;;;;;;;19.23;11.50;;;15.20;99.90;;;;;;5093590;28;20020;-81
2023/05/21 04:27:23;;;;;;;17.75;11.07;;;15.10;99.90;;;;;;5093932;28;20020;-82
2023/05/21 04:29:49;;;;;;;21.02;12.02;;;15.20;99.90;;;;;;5092486;28;20028;-82
2023/05/21 04:32:16;;;;;;;16.35;10.82;;;15.30;99.90;;;;;;5094471;28;20027;-81
2023/05/21 04:34:43;;;;;;;18.65;11.52;;;15.30;99.90;;;;;;5098762;28;20023;-81
2023/05/21 04:37:09;;;;;;;17.80;10.63;;;15.30;99.90;;;;;;5092443;28;20043;-81
2023/05/21 04:39:35;;;;;;;21.90;12.05;;;15.40;99.90;;;;;;5092074;28;20425;-81
2023/05/21 04:42:02;;;;;;;17.35;10.90;;;15.50;99.90;;;;;;5092534;28;20020;-80
2023/05/21 04:44:28;;;;;;;20.00;11.32;;;15.50;99.90;;;;;;5092389;28;20067;-81
2023/05/21 04:46:56;;;;;;;17.98;11.27;;;15.60;99.90;;;;;;5093784;28;20525;-81
2023/05/21 04:49:22;;;;;;;24.35;11.93;;;15.70;99.90;;;;;;5092442;28;20077;-81
2023/05/21 04:51:50;;;;;;;18.40;10.73;;;15.80;99.90;;;;;;5097309;28;20023;-81
2023/05/21 04:54:16;;;;;;;21.25;10.98;;;15.80;99.90;;;;;;5092250;28;20027;-81
2023/05/21 04:56:42;;;;;;;18.10;10.25;;;15.90;99.90;;;;;;5092430;28;20016;-81
2023/05/21 04:59:08;;;;;;;17.17;10.90;;;15.90;99.90;;;;;;5093315;28;20032;-81
2023/05/21 05:01:34;;;;;;;16.92;10.70;;;16.00;99.90;;;;;;5092312;28;20044;-80
2023/05/21 05:04:00;;;;;;;16.00;11.15;;;16.00;99.90;;;;;;5097805;28;20114;-81
2023/05/21 05:06:26;;;;;;;15.68;10.98;;;16.00;99.90;;;;;;5095766;28;20047;-82
2023/05/21 05:08:52;;;;;;;20.27;11.43;;;16.10;99.90;;;;;;5097262;28;20020;-81
2023/05/21 05:11:18;;;;;;;15.85;11.60;;;16.00;99.90;;;;;;5096073;28;20076;-80
2023/05/21 05:13:44;;;;;;;18.50;12.00;;;16.00;99.90;;;;;;5095476;28;20047;-82
2023/05/21 05:16:11;;;;;;;22.88;11.82;;;16.00;99.90;;;;;;5095947;28;20042;-81
2023/05/21 05:18:37;;;;;;;21.30;12.93;;;16.00;99.90;;;;;;5096894;28;20453;-82
2023/05/21 05:21:03;;;;;;;20.45;12.75;;;16.00;99.90;;;;;;5095139;28;20070;-80
2023/05/21 05:23:29;;;;;;;18.33;11.80;;;16.00;99.90;;;;;;5095235;28;20352;-81
2023/05/21 05:25:54;;;;;;;22.73;11.65;;;16.10;99.90;;;;;;5096593;28;20024;-81
2023/05/21 05:28:20;;;;;;;19.10;11.65;;;16.20;99.90;;;;;;5096157;28;20031;-81
2023/05/21 05:30:46;;;;;;;17.50;11.35;;;16.30;99.90;;;;;;5096444;28;20020;-82
2023/05/21 05:33:12;;;;;;;16.65;10.75;;;16.40;99.90;;;;;;5096094;28;20107;-81
2023/05/21 05:35:38;;;;;;;20.52;12.18;;;16.50;99.90;;;;;;5096204;28;20016;-81
2023/05/21 05:38:04;;;;;;;18.98;11.82;;;16.60;99.90;;;;;;5095220;28;20077;-81
2023/05/21 05:40:30;;;;;;;22.80;12.23;;;16.60;99.90;;;;;;5095951;28;20047;-80
2023/05/21 05:42:56;;;;;;;17.95;12.35;;;16.60;99.90;;;;;;5096690;28;20032;-80
2023/05/21 05:45:21;;;;;;;22.13;12.18;;;16.60;99.90;;;;;;5094873;28;20028;-80
2023/05/21 05:47:47;;;;;;;21.05;12.55;;;16.60;99.90;;;;;;5094606;28;20022;-82
2023/05/21 05:50:13;;;;;;;19.75;11.70;;;16.70;99.90;;;;;;5094689;28;20036;-81
2023/05/21 05:52:39;;;;;;;25.75;11.98;;;16.60;99.90;;;;;;5096013;28;20027;-80
2023/05/21 05:55:07;;;;;;;19.70;11.93;;;16.70;99.90;;;;;;5095498;28;20016;-82
2023/05/21 05:57:33;;;;;;;18.42;11.80;;;16.70;99.90;;;;;;5093839;28;20607;-80
2023/05/21 05:59:59;;;;;;;24.45;11.50;;;16.70;99.90;;;;;;5095661;28;20080;-81
2023/05/21 06:02:25;;;;;;;18.48;10.77;;;16.70;99.90;;;;;;5095696;28;20034;-81
2023/05/21 06:04:50;;;;;;;18.75;10.10;;;16.70;99.90;;;;;;5096414;28;20065;-80
2023/05/21 06:07:16;;;;;;;16.90;10.88;;;16.70;99.90;;;;;;5095752;28;20040;-81
2023/05/21 06:09:42;;;;;;;17.50;11.02;;;16.70;99.90;;;;;;5094142;28;20035;-83
2023/05/21 06:12:08;;;;;;;19.63;11.40;;;16.80;99.90;;;;;;5094407;28;20027;-84
2023/05/21 06:14:33;;;;;;;19.88;10.82;;;16.90;99.90;;;;;;5093790;28;20556;-83
2023/05/21 06:16:59;;;;;;;18.90;10.98;;;17.00;99.90;;;;;;5095007;28;20024;-82
2023/05/21 06:19:25;;;;;;;20.92;11.30;;;17.00;99.90;;;;;;5095120;28;20111;-84
2023/05/21 06:21:51;;;;;;;18.05;11.23;;;17.10;99.90;;;;;;5093198;28;20036;-83
2023/05/21 06:24:17;;;;;;;16.02;10.68;;;17.10;99.90;;;;;;5093634;28;20111;-83
2023/05/21 06:26:42;;;;;;;14.38;10.13;;;17.10;99.90;;;;;;5092960;28;20039;-82
2023/05/21 06:29:08;;;;;;;17.40;10.55;;;17.20;99.90;;;;;;5093871;28;20522;-83
2023/05/21 06:31:34;;;;;;;18.40;10.90;;;17.30;99.90;;;;;;5093599;28;20032;-83
2023/05/21 06:34:00;;;;;;;14.98;10.50;;;17.30;99.90;;;;;;5093759;28;20073;-83
2023/05/21 06:36:28;;;;;;;18.35;10.93;;;17.30;99.90;;;;;;5094777;28;20400;-83
2023/05/21 06:38:57;;;;;;;14.77;10.18;;;17.40;99.90;;;;;;5093927;28;20078;-82
2023/05/21 06:41:23;;;;;;;17.05;10.85;;;17.60;99.90;;;;;;5093260;28;20028;-84
2023/05/21 06:43:49;;;;;;;15.85;10.38;;;17.70;99.90;;;;;;5093442;28;20024;-84
2023/05/21 06:46:15;;;;;;;19.27;11.80;;;17.80;99.90;;;;;;5093697;28;20055;-84
2023/05/21 06:48:42;;;;;;;19.20;10.77;;;17.90;99.90;;;;;;5093732;28;20043;-82
2023/05/21 06:51:08;;;;;;;15.48;11.13;;;17.90;99.90;;;;;;5092824;28;20542;-84
2023/05/21 06:53:34;;;;;;;17.67;11.43;;;18.00;99.90;;;;;;5093825;28;20123;-84
2023/05/21 06:56:00;;;;;;;19.95;10.63;;;18.10;99.90;;;;;;5094362;28;20366;-83
2023/05/21 06:58:30;;;;;;;18.08;11.73;;;18.10;99.90;;;;;;5093742;28;20024;-83
2023/05/21 07:00:56;;;;;;;17.10;11.27;;;18.20;99.90;;;;;;5093634;28;20058;-83
2023/05/21 07:03:22;;;;;;;20.02;11.30;;;18.40;99.90;;;;;;5093417;28;20031;-84
2023/05/21 07:05:48;;;;;;;15.02;10.18;;;18.40;99.90;;;;;;5092865;28;20016;-83
2023/05/21 07:08:13;;;;;;;15.63;9.63;;;18.50;99.90;;;;;;5092879;28;20358;-83
2023/05/21 07:10:39;;;;;;;14.00;10.00;;;18.60;99.90;;;;;;5093288;28;20032;-84
2023/05/21 07:13:05;;;;;;;16.65;10.40;;;18.80;99.90;;;;;;5094261;28;20141;-85
2023/05/21 07:15:31;;;;;;;16.65;9.57;;;19.00;99.90;;;;;;5092331;28;20118;-83
2023/05/21 07:17:57;;;;;;;20.23;9.65;;;19.10;99.90;;;;;;5092334;28;20431;-84
2023/05/21 07:20:23;;;;;;;13.73;9.80;;;19.10;99.90;;;;;;5091736;28;20044;-85
2023/05/21 07:22:48;;;;;;;13.95;10.05;;;19.20;99.90;;;;;;5092992;28;20450;-84
2023/05/21 07:25:14;;;;;;;15.77;10.57;;;19.20;99.90;;;;;;5091312;28;20354;-84
2023/05/21 07:27:41;;;;;;;14.75;8.73;;;19.40;99.90;;;;;;5093418;28;20028;-84
2023/05/21 07:30:09;;;;;;;16.50;9.05;;;19.50;99.90;;;;;;5092488;28;20122;-84
2023/05/21 07:32:34;;;;;;;14.90;9.52;;;19.60;99.90;;;;;;5092193;28;20051;-82
2023/05/21 07:35:03;;;;;;;12.93;8.80;;;19.70;99.90;;;;;;5092509;28;20470;-83
2023/05/21 07:37:29;;;;;;;10.55;8.35;;;19.70;99.90;;;;;;5092847;28;20031;-82
2023/05/21 07:39:58;;;;;;;15.02;9.20;;;19.80;99.90;;;;;;5093805;28;20036;-83
2023/05/21 07:42:24;;;;;;;17.08;9.18;;;19.90;99.90;;;;;;5093687;28;20090;-84
2023/05/21 07:44:50;;;;;;;15.23;8.52;;;20.10;99.90;;;;;;5086684;28;20039;-82
2023/05/21 07:47:16;;;;;;;15.77;8.77;;;20.20;99.90;;;;;;5092324;28;20020;-81
2023/05/21 07:49:42;;;;;;;14.10;8.98;;;;;;;;;;5093842;28;20020;-83
2023/05/21 07:52:07;;;;;;;16.58;10.70;;;20.50;99.90;;;;;;5092661;28;20020;-84
2023/05/21 07:54:33;;;;;;;15.48;9.82;;;20.50;99.90;;;;;;5093565;28;20454;-82
2023/05/21 07:57:01;;;;;;;14.30;9.43;;;;;;;;;;5092589;28;20028;-84
2023/05/21 07:59:27;;;;;;;15.63;9.98;;;21.20;99.90;;;;;;5092608;28;20093;-82
2023/05/21 08:01:53;;;;;;;12.82;8.60;;;21.40;99.90;;;;;;5092513;28;20099;-84
2023/05/21 08:04:19;;;;;;;12.05;8.15;;;21.80;99.90;;;;;;5092434;28;20028;-81
2023/05/21 08:06:45;;;;;;;11.88;7.82;;;21.80;99.90;;;;;;5092144;28;20066;-83
2023/05/21 08:09:11;;;;;;;16.20;8.10;;;;;;;;;;5091659;28;20016;-82
2023/05/21 08:11:37;;;;;;;11.43;8.27;;;;;;;;;;5093027;28;20020;-83
2023/05/21 08:14:04;;;;;;;10.95;8.02;;;;;;;;;;5093515;28;20524;-82
2023/05/21 08:16:30;;;;;;;13.02;8.90;;;;;;;;;;5091794;28;20362;-84
2023/05/21 08:18:56;;;;;;;13.02;9.25;;;;;;;;;;5092236;28;20020;-81
2023/05/21 08:21:22;;;;;;;12.18;9.23;;;;;;;;;;5086130;28;20066;-80
2023/05/21 08:23:49;;;;;;;13.68;9.65;;;;;;;;;;5092795;28;20099;-80
2023/05/21 08:26:15;;;;;;;13.80;10.27;;;;;;;;;;5093469;28;20444;-79
2023/05/21 08:28:41;;;;;;;15.48;9.18;;;;;;;;;;5091767;28;20012;-82
2023/05/21 08:31:07;;;;;;;11.60;9.20;;;;;;;;;;5092003;28;20055;-79
2023/05/21 08:33:37;;;;;;;14.63;9.10;;;;;;;;;;5091680;28;20016;-81
2023/05/21 08:36:06;;;;;;;12.45;8.55;;;;;;;;;;5091451;28;20099;-80
2023/05/21 08:38:33;;;;;;;16.00;9.05;;;;;;;;;;5096631;28;20012;-80
2023/05/21 08:40:59;;;;;;;18.02;9.43;;;;;;;;;;5096588;28;20035;-81
2023/05/21 08:43:27;;;;;;;13.55;9.00;;;;;;;;;;5096255;28;20027;-81
2023/05/21 08:45:55;;;;;;;10.88;9.00;;;;;;;;;;5097709;28;20019;-80
2023/05/21 08:48:22;;;;;;;10.75;9.07;;;;;;;;;;5096258;28;20020;-80
2023/05/21 08:50:52;;;;;;;15.15;9.85;;;;;;;;;;5096094;28;20043;-81
2023/05/21 08:53:18;;;;;;;11.40;9.00;;;;;;;;;;5096487;28;20020;-80
2023/05/21 08:55:45;;;;;;;17.40;9.43;;;;;;;;;;5095209;28;20028;-82
2023/05/21 08:58:14;;;;;;;12.98;9.13;;;;;;;;;;5094508;28;20016;-82
2023/05/21 09:00:40;;;;;;;9.60;8.60;;;;;;;;;;5095363;28;20123;-83
2023/05/21 09:03:09;;;;;;;14.60;9.35;;;;;;;;;;5096679;28;20023;-82
2023/05/21 09:05:35;;;;;;;10.73;8.98;;;;;;;;;;5094690;28;20035;-81
2023/05/21 09:08:13;;;;;;;12.15;9.30;;;;;;;;;;5097849;28;20023;-82
2023/05/21 09:10:41;;;;;;;12.95;9.50;;;;;;;;;;5095784;28;20020;-83
2023/05/21 09:13:09;;;;;;;10.88;8.52;;;;;;;;;;5096109;28;20024;-81
2023/05/21 09:15:36;;;;;;;12.77;9.25;;;;;;;;;;5097163;28;20020;-81
2023/05/21 09:18:02;;;;;;;13.18;9.27;;;;;;;;;;5097108;28;20073;-81
2023/05/21 09:20:28;;;;;;;13.00;8.60;;;;;;;;;;5097002;28;20044;-83
2023/05/21 09:22:54;;;;;;;12.82;8.98;;;;;;;;;;5094742;28;20530;-82
2023/05/21 09:25:22;;;;;;;10.00;8.95;;;;;;;;;;5095203;28;20020;-82
2023/05/21 09:27:49;;;;;;;14.48;9.10;;;;;;;;;;5097029;28;20028;-81
2023/05/21 09:30:18;;;;;;;10.85;8.85;;;;;;;;;;5096777;28;20031;-82
2023/05/21 09:32:45;;;;;;;12.43;9.45;;;;;;;;;;5095627;28;20028;-82
2023/05/21 09:35:12;;;;;;;10.90;8.60;;;;;;;;;;5095699;28;20099;-81
2023/05/21 09:37:47;;;;;;;14.43;9.63;;;;;;;;;;5095583;28;20051;-83
2023/05/21 09:40:14;;;;;;;9.73;8.57;;;;;;;;;;5095303;28;20020;-82
2023/05/21 09:42:47;;;;;;;12.18;8.38;;;;;;;;;;5095790;28;20358;-83
2023/05/21 09:45:21;;;;;;;12.32;9.18;;;;;;;;;;5096530;28;20114;-82
2023/05/21 09:47:48;;;;;;;13.05;8.93;;;;;;;;;;5094656;28;20099;-82
2023/05/21 09:50:17;;;;;;;15.07;8.50;;;;;;;;;;5095512;28;20024;-82
2023/05/21 09:52:44;;;;;;;9.52;8.30;;;;;;;;;;5094899;28;20012;-82
2023/05/21 09:55:13;;;;;;;10.68;8.52;;;;;;;;;;5097038;28;20031;-82
2023/05/21 09:57:46;;;;;;;10.07;9.15;;;;;;;;;;5095712;28;20016;-80
2023/05/21 10:00:22;;;;;;;10.35;8.73;;;;;;;;;;5093797;28;20028;-81
2023/05/21 10:02:49;;;;;;;13.20;8.45;;;;;;;;;;5079317;28;20035;-81
2023/05/21 10:05:16;;;;;;;11.07;8.60;;;;;;;;;;5094692;28;20023;-80
2023/05/21 10:07:44;;;;;;;10.98;8.23;;;;;;;;;;5095821;28;20020;-82
2023/05/21 10:10:13;;;;;;;14.40;8.80;;;;;;;;;;5094750;28;20022;-82
2023/05/21 10:12:42;;;;;;;9.15;7.75;;;;;;;;;;5095970;28;20133;-82
2023/05/21 10:15:09;;;;;;;9.50;8.20;;;;;;;;;;5094190;28;20463;-84
2023/05/21 10:17:35;;;;;;;11.90;8.18;;;;;;;;;;5095834;28;20031;-81
2023/05/21 10:20:03;;;;;;;9.18;7.65;;;;;;;;;;5095651;28;20051;-83
2023/05/21 10:22:30;;;;;;;11.10;7.70;;;;;;;;;;5094182;28;20429;-82
2023/05/21 10:24:57;;;;;;;12.95;8.52;;;;;;;;;;5096232;28;20441;-81
2023/05/21 10:27:23;;;;;;;9.00;7.13;;;;;;;;;;5094367;28;20077;-81
2023/05/21 10:29:49;;;;;;;8.35;7.30;;;;;;;;;;5094569;28;20028;-80
2023/05/21 10:32:16;;;;;;;8.25;7.45;;;;;;;;;;5094534;28;20107;-81
2023/05/21 10:34:43;;;;;;;10.48;7.80;;;;;;;;;;5094156;28;20063;-80
2023/05/21 10:37:11;;;;;;;12.75;7.68;;;;;;;;;;5095047;28;20095;-83
2023/05/21 10:39:39;;;;;;;8.60;7.70;;;;;;;;;;5094081;28;20016;-83
2023/05/21 10:42:18;;;;;;;8.93;8.02;;;;;;;;;;5095371;28;20027;-83
2023/05/21 10:45:00;;;;;;;9.32;8.32;;;;;;;;;;5094344;28;20028;-82
2023/05/21 10:47:27;;;;;;;;;;;;;;;;;;5095992;28;20065;-82
2023/05/21 10:50:14;;;;;;;14.43;8.48;;;;;;;;;;5093896;28;19943;-82
2023/05/21 10:53:06;;;;;;;9.70;8.70;;;;;;;;;;5047298;28;20062;-81
2023/05/21 10:55:46;;;;;;;12.02;8.77;;;;;;;;;;5029872;28;20076;-83
2023/05/21 10:58:15;;;;;;;10.63;9.50;;;;;;;;;;5032388;28;20021;-81
2023/05/21 11:00:42;;;;;;;10.20;9.02;;;;;;;;;;5027919;28;20132;-82
2023/05/21 11:03:10;;;;;;;19.90;9.43;;;;;;;;;;5015682;28;20060;-82
2023/05/21 11:05:52;;;;;;;12.02;8.90;;;;;;;;;;5032632;28;20059;-82
2023/05/21 11:08:23;;;;;;;11.70;9.02;;;;;;;;;;5026303;28;20029;-82
2023/05/21 11:11:07;;;;;;;14.95;9.43;;;;;;;;;;5015999;28;20124;-81
2023/05/21 11:13:49;;;;;;;9.90;8.95;;;;;;;;;;5032491;28;20399;-83
2023/05/21 11:16:16;;;;;;;10.32;9.32;;;;;;;;;;5032426;28;20554;-82
2023/05/21 11:18:42;;;;;;;11.20;8.65;;;;;;;;;;5015599;28;20133;-83
2023/05/21 11:21:12;;;;;;;10.25;9.18;;;;;;;;;;5032341;28;20125;-82
2023/05/21 11:23:50;;;;;;;9.05;8.13;;;;;;;;;;5032050;28;20025;-81
2023/05/21 11:26:22;;;;;;;11.93;8.50;;;;;;;;;;5032392;28;20025;-82
2023/05/21 11:29:04;;;;;;;12.95;8.90;;;;;;;;;;5032384;28;20021;-81
2023/05/21 11:31:37;;;;;;;12.38;8.05;;;;;;;;;;5005482;28;20047;-82
2023/05/21 11:34:13;;;;;;;10.02;8.48;;;;;;;;;;5092660;28;20020;-82
2023/05/21 11:36:46;;;;;;;16.80;8.40;;;;;;;;;;5094588;28;20020;-81
2023/05/21 11:39:20;;;;;;;8.98;7.90;;;;;;;;;;5094022;28;20020;-81
2023/05/21 11:42:03;;;;;;;12.75;8.43;;;;;;;;;;5094601;28;20028;-80
2023/05/21 11:44:38;;;;;;;9.75;8.35;;;;;;;;;;5093982;28;20024;-82
2023/05/21 11:47:05;;;;;;;10.52;8.30;;;;;;;;;;5093403;28;20024;-81
2023/05/21 11:49:31;;;;;;;12.77;9.27;;;;;;;;;;5094671;28;20086;-80
2023/05/21 11:52:00;;;;;;;9.73;8.52;;;;;;;;;;5093503;28;20115;-81
2023/05/21 11:54:26;;;;;;;10.10;8.18;;;;;;;;;;5092707;28;20024;-83
2023/05/21 11:56:54;;;;;;;12.98;8.52;;;;;;;;;;5091955;28;20124;-83
2023/05/21 11:59:20;;;;;;;9.27;7.63;;;;;;;;;;5092685;28;20095;-84
2023/05/21 12:01:46;;;;;;;12.23;8.20;;;;;;;;;;5092792;28;20039;-83
2023/05/21 12:04:12;;;;;;;9.18;7.38;;;;;;;;;;5085419;28;20024;-81
2023/05/21 12:06:41;;;;;;;9.70;8.23;;;;;;;;;;5092521;28;20016;-83
2023/05/21 12:09:10;;;;;;;11.90;9.10;;;;;;;;;;5076452;28;20020;-81
2023/05/21 12:11:40;;;;;;;12.60;8.10;;;;;;;;;;5092389;28;20485;-82
2023/05/21 12:14:08;;;;;;;12.23;8.60;;;;;;;;;;5093737;28;20031;-82
2023/05/21 12:16:34;;;;;;;9.32;8.02;;;;;;;;;;5094095;28;20058;-83
2023/05/21 12:19:01;;;;;;;9.20;8.20;;;;;;;;;;5092291;28;20048;-82
2023/05/21 12:21:30;;;;;;;9.02;8.07;;;;;;;;;;5093597;28;20131;-81
2023/05/21 12:23:56;;;;;;;12.60;8.18;;;;;;;;;;5093943;28;20028;-80
2023/05/21 12:26:26;;;;;;;10.55;7.90;;;;;;;;;;5091120;28;20023;-82
2023/05/21 12:28:56;;;;;;;10.18;9.07;;;;;;;;;;5086308;28;20034;-80
2023/05/21 12:31:23;;;;;;;10.82;7.90;;;;;;;;;;5092234;28;20051;-81
2023/05/21 12:33:50;;;;;;;10.43;8.02;;;;;;;;;;5092441;28;20008;-81
2023/05/21 12:36:25;;;;;;;9.57;8.68;;;;;;;;;;5091916;28;20525;-82
2023/05/21 12:38:52;;;;;;;10.40;7.75;;;;;;;;;;5091471;28;20048;-81
2023/05/21 12:41:18;;;;;;;8.93;8.00;;;;;;;;;;5091455;28;20032;-82
2023/05/21 12:43:44;;;;;;;14.48;8.57;;;;;;;;;;5093042;28;20016;-81
2023/05/21 12:46:16;;;;;;;14.45;7.65;;;;;;;;;;5091765;28;20020;-83
2023/05/21 12:48:47;;;;;;;10.15;8.20;;;;;;;;;;5092978;28;20020;-82
2023/05/21 12:51:14;;;;;;;11.40;8.18;;;;;;;;;;5093401;28;20418;-81
2023/05/21 12:53:43;;;;;;;12.25;8.05;;;;;;;;;;5092830;28;20138;-82
2023/05/21 12:56:10;;;;;;;14.88;7.97;;;;;;;;;;5092785;28;20099;-82
2023/05/21 12:58:37;;;;;;;12.15;8.00;;;;;;;;;;5093018;28;20036;-82
2023/05/21 13:01:10;;;;;;;13.95;9.70;;;;;;;;;;5091805;28;20024;-83
2023/05/21 13:03:41;;;;;;;13.55;8.32;;;;;;;;;;5091783;28;20032;-82
2023/05/21 13:06:10;;;;;;;13.10;9.00;;;;;;;;;;5091767;28;20050;-83
2023/05/21 13:08:36;;;;;;;11.07;8.32;;;;;;;;;;5092417;28;20008;-82
2023/05/21 13:11:02;;;;;;;19.33;8.82;;;;;;;;;;5091746;28;20062;-83
2023/05/21 13:13:29;;;;;;;10.25;8.80;;;;;;;;;;5089973;28;20085;-82
2023/05/21 13:15:55;;;;;;;13.20;9.15;;;;;;;;;;5091624;28;20020;-82
2023/05/21 13:18:22;;;;;;;10.05;8.50;;;;;;;;;;5075447;28;20016;-82